map of ACP home
ACP - Airport
Location
City:  Maragheh, Azarbayjan-e Sharqi, Iran
Name:Sahand
ICAO:OITM
IATA:ACP

Details
Type:Airport (Aerodrome, Airfield)
Latitude:3720'53"N (37.348017)
Longitude:4607'40"E (46.127903)
Datum:WGS 1984
Elevation:4396 ft (1340 m)
Variation:5.51E (WMM2015v2 magnetic declination)
0.07 annual change
Runways:1
Longest:9614 × 98 ft (2930 × 30 m), paved

Time
Time Zone:UTC+3:30 (DST+4:30)
Local Time:

Weather
METAR:OITM 041400Z 25004KT 9999 FEW040 07/M06 Q1027

Related Locations
Nearby:
Farthest:GMR: 11445 mi / 18420 km
Mangareva [Totegegie], Gambier Islands, PF

Find:

   beyond  
but within

Other Information
Maps:
NOTAMs:
Links:
Sources:

  
  • flag of Iran
  

Sectional Chart

Flight Planning
at skyvector.com

Satellite Image

Google Maps Satellite view

 

Copyright © 2004-2019 Karl L. Swartz. All rights reserved.
The Great Circle Mapper name and logo are trademarks of the Great Circle Mapper.
All other trademarks mentioned herein belong to their respective owners.
Please see credits for attibutions and further copyright information.

  Follow gcmap on Facebook Follow gcmap on Twitter GCmap on LinkedIn

hCard Microformat

Geo Microformat